createdAt,value
2018-11-13T00:01:43.315Z,101219.95
2018-11-13T00:04:11.804Z,101213.97
2018-11-13T00:06:40.036Z,101208.69
2018-11-13T00:09:08.903Z,101227.66
2018-11-13T00:11:37.518Z,101234.88
2018-11-13T00:14:05.771Z,101243.07
2018-11-13T00:16:34.051Z,101248.84
2018-11-13T00:19:02.346Z,101262.58
2018-11-13T00:21:30.937Z,101268.55
2018-11-13T00:23:59.345Z,101270.20
2018-11-13T00:26:27.855Z,101269.25
2018-11-13T00:28:56.152Z,101263.98
2018-11-13T00:31:24.416Z,101268.60
2018-11-13T00:33:52.703Z,101265.97
2018-11-13T00:36:20.969Z,101276.86
2018-11-13T00:38:49.278Z,101262.34
2018-11-13T00:41:17.798Z,101267.49
2018-11-13T00:43:46.132Z,101263.66
2018-11-13T00:46:14.431Z,101259.58
2018-11-13T00:48:42.690Z,101247.37
2018-11-13T00:51:10.992Z,101253.11
2018-11-13T00:53:39.259Z,101248.81
2018-11-13T00:56:07.528Z,101244.64
2018-11-13T00:58:35.800Z,101240.97
2018-11-13T01:01:04.107Z,101233.55
2018-11-13T01:03:32.394Z,101241.47
2018-11-13T01:06:00.688Z,101238.50
2018-11-13T01:08:28.983Z,101236.47
2018-11-13T01:10:57.282Z,101219.82
2018-11-13T01:13:25.545Z,101220.80
2018-11-13T01:15:53.917Z,101215.66
2018-11-13T01:18:22.227Z,101217.96
2018-11-13T01:20:50.485Z,101211.37
2018-11-13T01:23:18.766Z,101215.48
2018-11-13T01:25:47.118Z,101228.30
2018-11-13T01:28:15.392Z,101246.44
2018-11-13T01:30:43.663Z,101258.59
2018-11-13T01:33:11.934Z,101272.22
2018-11-13T01:35:40.611Z,101268.38
2018-11-13T01:38:08.877Z,101264.43
2018-11-13T01:40:37.148Z,101260.34
2018-11-13T01:43:05.484Z,101259.36
2018-11-13T01:45:33.748Z,101262.00
2018-11-13T01:48:02.111Z,101246.17
2018-11-13T01:50:30.336Z,101240.36
2018-11-13T01:52:58.666Z,101232.73
2018-11-13T01:55:26.980Z,101246.56
2018-11-13T01:57:55.234Z,101266.47
2018-11-13T02:00:24.275Z,101266.90
2018-11-13T02:02:53.722Z,101272.95
2018-11-13T02:05:23.199Z,101272.12
2018-11-13T02:07:52.243Z,101266.97
2018-11-13T02:10:20.844Z,101262.47
2018-11-13T02:12:49.672Z,101268.23
2018-11-13T02:15:18.217Z,101270.98
2018-11-13T02:17:46.496Z,101275.16
2018-11-13T02:20:16.529Z,101288.70
2018-11-13T02:22:44.826Z,101287.73
2018-11-13T02:25:14.511Z,101281.96
2018-11-13T02:27:43.075Z,101279.94
2018-11-13T02:30:14.251Z,101275.03
2018-11-13T02:32:43.278Z,101264.83
2018-11-13T02:35:12.108Z,101255.59
2018-11-13T02:37:40.407Z,101244.22
2018-11-13T02:40:08.659Z,101243.73
2018-11-13T02:42:37.654Z,101243.39
2018-11-13T02:45:10.087Z,101253.39
2018-11-13T02:47:38.603Z,101265.88
2018-11-13T02:50:08.899Z,101271.63
2018-11-13T02:52:37.511Z,101270.98
2018-11-13T02:55:06.054Z,101264.61
2018-11-13T02:57:34.492Z,101259.70
2018-11-13T03:00:02.815Z,101249.00
2018-11-13T03:02:31.263Z,101235.20
2018-11-13T03:04:59.535Z,101230.05
2018-11-13T03:07:28.003Z,101236.44
2018-11-13T03:09:56.276Z,101222.58
2018-11-13T03:12:24.546Z,101223.53
2018-11-13T03:14:52.851Z,101242.14
2018-11-13T03:17:21.480Z,101252.69
2018-11-13T03:19:49.774Z,101245.48
2018-11-13T03:22:18.051Z,101256.36
2018-11-13T03:24:46.300Z,101250.48
2018-11-13T03:27:14.581Z,101250.94
2018-11-13T03:29:42.872Z,101257.89
2018-11-13T03:32:11.191Z,101258.84
2018-11-13T03:34:39.460Z,101263.66
2018-11-13T03:37:07.920Z,101274.33
2018-11-13T03:39:36.211Z,101277.25
2018-11-13T03:42:04.521Z,101272.25
2018-11-13T03:44:32.812Z,101275.53
2018-11-13T03:47:01.064Z,101261.48
2018-11-13T03:49:29.370Z,101268.23
2018-11-13T03:51:57.691Z,101298.06
2018-11-13T03:54:26.054Z,101302.84
2018-11-13T03:56:54.413Z,101290.16
2018-11-13T03:59:23.087Z,101295.09
2018-11-13T04:01:51.386Z,101308.76
2018-11-13T04:04:19.667Z,101311.02
2018-11-13T04:06:47.939Z,101313.81
2018-11-13T04:09:16.340Z,101308.05
2018-11-13T04:11:44.626Z,101299.16
2018-11-13T04:14:12.898Z,101291.96
2018-11-13T04:16:41.170Z,101295.09
2018-11-13T04:19:09.554Z,101291.25
2018-11-13T04:21:38.381Z,101298.34
2018-11-13T04:24:06.911Z,101299.88
2018-11-13T04:26:35.242Z,101300.20
2018-11-13T04:29:03.511Z,101292.66
2018-11-13T04:31:31.772Z,101310.36
2018-11-13T04:34:00.075Z,101308.05
2018-11-13T04:36:28.356Z,101306.95
2018-11-13T04:38:56.629Z,101311.13
2018-11-13T04:41:24.922Z,101296.80
2018-11-13T04:43:53.290Z,101290.42
2018-11-13T04:46:21.607Z,101282.23
2018-11-13T04:48:50.036Z,101294.92
2018-11-13T04:51:18.322Z,101297.28
2018-11-13T04:53:46.592Z,101289.43
2018-11-13T04:56:14.863Z,101281.52
2018-11-13T04:58:43.164Z,101285.34
2018-11-13T05:01:11.440Z,101279.25
2018-11-13T05:03:39.762Z,101294.09
2018-11-13T05:06:08.063Z,101297.55
2018-11-13T05:08:36.379Z,101309.09
2018-11-13T05:11:04.672Z,101319.76
2018-11-13T05:13:32.939Z,101313.99
2018-11-13T05:16:01.708Z,101319.27
2018-11-13T05:18:29.991Z,101328.50
2018-11-13T05:20:58.255Z,101326.35
2018-11-13T05:23:26.664Z,101331.84
2018-11-13T05:25:55.024Z,101325.95
2018-11-13T05:28:23.303Z,101326.50
2018-11-13T05:30:51.639Z,101319.26
2018-11-13T05:33:19.918Z,101330.52
2018-11-13T05:35:48.175Z,101338.42
2018-11-13T05:38:16.636Z,101323.22
2018-11-13T05:40:44.898Z,101319.05
2018-11-13T05:43:13.225Z,101327.27
2018-11-13T05:45:41.493Z,101339.27
2018-11-13T05:48:09.724Z,101335.25
2018-11-13T05:50:38.049Z,101344.91
2018-11-13T05:53:06.668Z,101358.49
2018-11-13T05:55:34.952Z,101347.27
2018-11-13T05:58:03.236Z,101349.54
2018-11-13T06:00:32.560Z,101348.49
2018-11-13T06:03:01.387Z,101350.45
2018-11-13T06:05:29.926Z,101361.34
2018-11-13T06:07:58.451Z,101361.00
2018-11-13T06:10:26.767Z,101356.83
2018-11-13T06:12:55.170Z,101369.30
2018-11-13T06:15:23.450Z,101370.90
2018-11-13T06:17:51.726Z,101373.47
2018-11-13T06:20:19.991Z,101382.63
2018-11-13T06:22:48.376Z,101377.96
2018-11-13T06:25:17.578Z,101376.45
2018-11-13T06:27:47.002Z,101374.50
2018-11-13T06:30:20.615Z,101385.53
2018-11-13T06:32:49.348Z,101380.14
2018-11-13T06:35:17.653Z,101392.00
2018-11-13T06:37:45.917Z,101389.00
2018-11-13T06:40:14.241Z,101395.09
2018-11-13T06:42:42.664Z,101395.09
2018-11-13T06:45:13.444Z,101398.71
2018-11-13T06:47:42.304Z,101394.54
2018-11-13T06:50:11.183Z,101396.34
2018-11-13T06:52:39.475Z,101407.87
2018-11-13T06:55:13.522Z,101412.31
2018-11-13T06:57:41.832Z,101412.80
2018-11-13T07:00:10.650Z,101414.23
2018-11-13T07:02:39.558Z,101408.36
2018-11-13T07:05:12.276Z,101416.75
2018-11-13T07:07:40.810Z,101420.97
2018-11-13T07:10:10.635Z,101428.31
2018-11-13T07:12:39.765Z,101432.61
2018-11-13T07:15:09.122Z,101438.71
2018-11-13T07:17:37.407Z,101437.05
2018-11-13T07:20:06.654Z,101446.28
2018-11-13T07:22:34.915Z,101457.50
2018-11-13T07:25:03.239Z,101450.91
2018-11-13T07:27:31.550Z,101456.81
2018-11-13T07:30:00.018Z,101456.63
2018-11-13T07:32:28.327Z,101455.00
2018-11-13T07:34:56.555Z,101459.22
2018-11-13T07:37:24.823Z,101450.92
2018-11-13T07:39:53.118Z,101466.09
2018-11-13T07:42:21.510Z,101471.25
2018-11-13T07:44:49.771Z,101485.14
2018-11-13T07:47:18.182Z,101473.84
2018-11-13T07:49:46.368Z,101472.27
2018-11-13T07:52:14.646Z,101476.57
2018-11-13T07:54:42.924Z,101473.81
2018-11-13T07:57:11.161Z,101478.08
2018-11-13T07:59:39.445Z,101485.35
2018-11-13T08:02:07.736Z,101475.00
2018-11-13T08:04:36.293Z,101483.32
2018-11-13T08:07:04.946Z,101495.36
2018-11-13T08:09:33.209Z,101489.65
2018-11-13T08:12:01.452Z,101485.14
2018-11-13T08:14:30.655Z,101485.84
2018-11-13T08:16:59.075Z,101487.56
2018-11-13T08:19:27.328Z,101502.56
2018-11-13T08:21:55.673Z,101495.41
2018-11-13T08:24:23.910Z,101510.83
2018-11-13T08:26:52.184Z,101509.86
2018-11-13T08:29:20.511Z,101512.56
2018-11-13T08:31:48.773Z,101510.91
2018-11-13T08:34:17.169Z,101504.70
2018-11-13T08:36:45.453Z,101503.77
2018-11-13T08:39:13.988Z,101500.64
2018-11-13T08:41:42.267Z,101501.53
2018-11-13T08:44:10.635Z,101501.25
2018-11-13T08:46:39.004Z,101510.92
2018-11-13T08:49:07.647Z,101516.81
2018-11-13T08:51:35.923Z,101520.98
2018-11-13T08:54:04.226Z,101527.31
2018-11-13T08:56:32.487Z,101526.70
2018-11-13T08:59:00.859Z,101533.55
2018-11-13T09:01:29.066Z,101545.08
2018-11-13T09:03:57.330Z,101538.58
2018-11-13T09:06:25.620Z,101540.66
2018-11-13T09:08:53.861Z,101545.44
2018-11-13T09:11:22.198Z,101547.22
2018-11-13T09:13:50.400Z,101550.46
2018-11-13T09:16:18.635Z,101543.91
2018-11-13T09:18:47.017Z,101555.63
2018-11-13T09:21:15.240Z,101558.89
2018-11-13T09:23:43.538Z,101562.59
2018-11-13T09:26:11.843Z,101560.23
2018-11-13T09:28:40.098Z,101562.05
2018-11-13T09:31:08.462Z,101563.50
2018-11-13T09:33:37.052Z,101573.33
2018-11-13T09:36:05.757Z,101577.28
2018-11-13T09:38:34.135Z,101573.50
2018-11-13T09:41:02.432Z,101575.31
2018-11-13T09:43:30.721Z,101576.53
2018-11-13T09:45:59.053Z,101577.02
2018-11-13T09:48:27.291Z,101582.77
2018-11-13T09:50:55.595Z,101585.72
2018-11-13T09:53:23.991Z,101586.17
2018-11-13T09:55:52.212Z,101604.39
2018-11-13T09:58:20.471Z,101593.41
2018-11-13T10:00:48.892Z,101597.22
2018-11-13T10:03:17.792Z,101594.62
2018-11-13T10:05:46.533Z,101586.62
2018-11-13T10:08:14.702Z,101597.20
2018-11-13T10:10:43.039Z,101592.19
2018-11-13T10:13:11.287Z,101598.02
2018-11-13T10:15:39.579Z,101592.17
2018-11-13T10:18:08.014Z,101589.28
2018-11-13T10:20:36.135Z,101586.06
2018-11-13T10:23:04.590Z,101593.31
2018-11-13T10:25:32.834Z,101596.65
2018-11-13T10:28:01.139Z,101579.41
2018-11-13T10:30:29.457Z,101587.59
2018-11-13T10:32:57.761Z,101587.77
2018-11-13T10:35:26.650Z,101587.05
2018-11-13T10:37:54.918Z,101585.17
2018-11-13T10:40:23.803Z,101589.25
2018-11-13T10:42:52.519Z,101595.20
2018-11-13T10:45:23.560Z,101593.15
2018-11-13T10:47:51.850Z,101590.24
2018-11-13T10:50:21.761Z,101576.89
2018-11-13T10:52:49.978Z,101584.08
2018-11-13T10:55:18.248Z,101570.20
2018-11-13T10:57:46.541Z,101573.51
2018-11-13T11:00:21.170Z,101575.00
2018-11-13T11:03:56.625Z,101575.47
2018-11-13T11:06:24.983Z,101568.72
2018-11-13T11:08:53.247Z,101571.44
2018-11-13T11:11:21.575Z,101576.44
2018-11-13T11:13:49.982Z,101562.98
2018-11-13T11:16:18.111Z,101568.62
2018-11-13T11:18:46.430Z,101559.78
2018-11-13T11:21:14.672Z,101571.31
2018-11-13T11:23:42.971Z,101559.98
2018-11-13T11:26:11.530Z,101554.57
2018-11-13T11:28:39.841Z,101558.58
2018-11-13T11:31:08.507Z,101559.65
2018-11-13T11:33:36.689Z,101564.40
2018-11-13T11:36:05.116Z,101570.47
2018-11-13T11:38:33.701Z,101567.43
2018-11-13T11:41:01.939Z,101568.53
2018-11-13T11:43:30.223Z,101570.41
2018-11-13T11:45:58.519Z,101577.23
2018-11-13T11:48:26.803Z,101576.84
2018-11-13T11:50:55.107Z,101567.76
2018-11-13T11:53:23.393Z,101566.20
2018-11-13T11:55:51.665Z,101577.02
2018-11-13T11:58:19.965Z,101585.41
2018-11-13T12:00:48.378Z,101591.70
2018-11-13T12:03:16.607Z,101596.55
2018-11-13T12:05:44.948Z,101602.30
2018-11-13T12:08:13.239Z,101615.39
2018-11-13T12:10:41.735Z,101614.67
2018-11-13T12:13:09.807Z,101625.38
2018-11-13T12:15:38.093Z,101632.34
2018-11-13T12:18:06.636Z,101631.54
2018-11-13T12:20:34.934Z,101643.84
2018-11-13T12:23:03.235Z,101641.19
2018-11-13T12:25:31.532Z,101649.12
2018-11-13T12:27:59.836Z,101644.63
2018-11-13T12:30:28.137Z,101653.75
2018-11-13T12:32:56.428Z,101641.39
2018-11-13T12:35:25.052Z,101651.53
2018-11-13T12:37:53.368Z,101661.16
2018-11-13T12:40:22.908Z,101668.61
2018-11-13T12:42:51.497Z,101660.25
2018-11-13T12:45:20.303Z,101666.74
2018-11-13T12:47:48.835Z,101664.59
2018-11-13T12:50:18.267Z,101673.36
2018-11-13T12:52:46.526Z,101676.84
2018-11-13T12:55:20.931Z,101675.52
2018-11-13T12:57:49.209Z,101677.87
2018-11-13T13:00:22.906Z,101686.59
2018-11-13T13:02:51.319Z,101688.45
2018-11-13T13:05:19.797Z,101693.75
2018-11-13T13:07:48.093Z,101694.71
2018-11-13T13:10:17.592Z,101693.83
2018-11-13T13:12:45.882Z,101699.47
2018-11-13T13:15:15.674Z,101698.22
2018-11-13T13:17:44.251Z,101699.88
2018-11-13T13:20:17.940Z,101701.41
2018-11-13T13:22:47.356Z,101699.72
2018-11-13T13:25:16.671Z,101703.77
2018-11-13T13:27:44.977Z,101705.96
2018-11-13T13:30:16.271Z,101700.05
2018-11-13T13:32:45.072Z,101700.58
2018-11-13T13:35:58.659Z,101711.34
2018-11-13T13:38:26.938Z,101707.33
2018-11-13T13:40:56.592Z,101724.83
2018-11-13T13:43:25.706Z,101722.34
2018-11-13T13:45:54.011Z,101727.23
2018-11-13T13:48:22.659Z,101725.03
2018-11-13T13:50:50.975Z,101722.59
2018-11-13T13:53:20.026Z,101727.14
2018-11-13T13:55:48.824Z,101732.93
2018-11-13T13:58:17.505Z,101733.77
2018-11-13T14:00:45.885Z,101738.02
2018-11-13T14:03:14.668Z,101744.92
2018-11-13T14:05:43.369Z,101750.53
2018-11-13T14:08:12.566Z,101749.09
2018-11-13T14:10:40.904Z,101758.55
2018-11-13T14:13:09.291Z,101764.68
2018-11-13T14:15:37.585Z,101757.83
2018-11-13T14:18:05.895Z,101765.40
2018-11-13T14:20:34.200Z,101766.88
2018-11-13T14:23:02.473Z,101768.49
2018-11-13T14:25:30.916Z,101776.77
2018-11-13T14:27:59.259Z,101779.36
2018-11-13T14:30:30.364Z,101781.80
2018-11-13T14:33:00.089Z,101789.51
2018-11-13T14:35:28.439Z,101786.59
2018-11-13T14:37:56.899Z,101793.67
2018-11-13T14:40:29.457Z,101789.58
2018-11-13T14:42:58.056Z,101784.34
2018-11-13T14:45:26.922Z,101794.09
2018-11-13T14:47:55.307Z,101808.77
2018-11-13T14:50:25.054Z,101812.35
2018-11-13T14:52:53.601Z,101816.11
2018-11-13T14:55:24.231Z,101825.16
2018-11-13T14:57:52.902Z,101820.17
2018-11-13T15:00:23.767Z,101821.66
2018-11-13T15:02:52.493Z,101819.87
2018-11-13T15:05:21.651Z,101837.55
2018-11-13T15:07:51.173Z,101841.98
2018-11-13T15:10:39.787Z,101836.69
2018-11-13T15:13:09.005Z,101851.73
2018-11-13T15:15:37.286Z,101859.33
2018-11-13T15:18:06.235Z,101865.50
2018-11-13T15:20:34.527Z,101866.76
2018-11-13T15:23:02.788Z,101871.27
2018-11-13T15:25:31.072Z,101879.28
2018-11-13T15:27:59.336Z,101882.89
2018-11-13T15:30:29.386Z,101877.91
2018-11-13T15:33:02.109Z,101887.09
2018-11-13T15:35:30.392Z,101885.81
2018-11-13T15:37:58.643Z,101892.83
2018-11-13T15:40:28.119Z,101888.30
2018-11-13T15:42:56.428Z,101897.59
2018-11-13T15:45:24.720Z,101901.10
2018-11-13T15:47:53.784Z,101911.59
2018-11-13T15:50:26.243Z,101916.30
2018-11-13T15:52:54.672Z,101917.69
2018-11-13T15:55:22.949Z,101926.94
2018-11-13T15:57:51.394Z,101933.42
2018-11-13T16:00:25.649Z,101934.40
2018-11-13T16:02:54.379Z,101934.89
2018-11-13T16:05:41.669Z,101942.66
2018-11-13T16:08:10.717Z,101946.62
2018-11-13T16:10:38.991Z,101943.64
2018-11-13T16:13:07.627Z,101948.58
2018-11-13T16:15:35.914Z,101952.80
2018-11-13T16:18:05.553Z,101952.45
2018-11-13T16:20:33.843Z,101962.30
2018-11-13T16:23:02.355Z,101971.45
2018-11-13T16:25:30.674Z,101974.79
2018-11-13T16:27:58.962Z,101978.41
2018-11-13T16:30:28.811Z,101982.63
2018-11-13T16:32:56.974Z,101977.25
2018-11-13T16:35:26.267Z,101982.44
2018-11-13T16:37:55.418Z,101984.36
2018-11-13T16:40:24.980Z,101989.78
2018-11-13T16:42:53.265Z,101995.17
2018-11-13T16:45:22.635Z,101995.19
2018-11-13T16:47:51.146Z,102000.86
2018-11-13T16:50:21.322Z,102003.37
2018-11-13T16:52:49.593Z,101996.54
2018-11-13T16:55:23.279Z,102001.95
2018-11-13T16:57:52.308Z,101999.57
2018-11-13T17:00:21.150Z,102003.15
2018-11-13T17:02:49.567Z,102007.98
2018-11-13T17:05:18.870Z,102004.52
2018-11-13T17:07:47.132Z,102006.66
2018-11-13T17:10:16.858Z,102013.52
2018-11-13T17:12:45.354Z,102013.99
2018-11-13T17:15:16.016Z,102012.78
2018-11-13T17:17:44.938Z,102014.97
2018-11-13T17:20:13.873Z,102020.25
2018-11-13T17:22:42.668Z,102016.89
2018-11-13T17:25:11.948Z,102019.77
2018-11-13T17:27:41.300Z,102028.91
2018-11-13T17:30:12.345Z,102035.64
2018-11-13T17:32:41.008Z,102043.66
2018-11-13T17:35:10.284Z,102046.09
2018-11-13T17:37:38.663Z,102045.22
2018-11-13T17:40:09.920Z,102044.52
2018-11-13T17:42:38.299Z,102048.48
2018-11-13T17:45:17.547Z,102055.08
2018-11-13T17:47:46.436Z,102056.05
2018-11-13T17:50:19.184Z,102050.52
2018-11-13T17:52:48.181Z,102057.02
2018-11-13T17:55:17.184Z,102057.36
2018-11-13T17:57:46.371Z,102060.48
2018-11-13T18:00:47.701Z,102066.34
2018-11-13T18:03:17.037Z,102069.61
2018-11-13T18:05:46.045Z,102064.81
2018-11-13T18:08:14.500Z,102061.80
2018-11-13T18:10:43.986Z,102065.89
2018-11-13T18:13:12.279Z,102070.43
2018-11-13T18:15:40.627Z,102069.35
2018-11-13T18:18:09.271Z,102067.09
2018-11-13T18:20:38.627Z,102072.00
2018-11-13T18:23:07.477Z,102070.81
2018-11-13T18:25:35.890Z,102078.34
2018-11-13T18:28:04.381Z,102076.33
2018-11-13T18:30:35.072Z,102080.38
2018-11-13T18:33:04.006Z,102081.83
2018-11-13T18:35:33.622Z,102089.36
2018-11-13T18:38:03.426Z,102083.97
2018-11-13T18:40:31.641Z,102090.69
2018-11-13T18:43:01.231Z,102088.29
2018-11-13T18:45:31.268Z,102093.66
2018-11-13T18:47:59.680Z,102095.95
2018-11-13T18:50:30.052Z,102102.67
2018-11-13T18:52:58.389Z,102101.58
2018-11-13T18:55:26.769Z,102103.84
2018-11-13T18:57:55.409Z,102095.81
2018-11-13T19:00:26.203Z,102109.37
2018-11-13T19:02:54.521Z,102107.19
2018-11-13T19:05:23.293Z,102109.81
2018-11-13T19:07:51.558Z,102113.06
2018-11-13T19:10:27.499Z,102111.40
2018-11-13T19:13:00.770Z,102109.83
2018-11-13T19:15:30.079Z,102120.23
2018-11-13T19:17:58.436Z,102120.85
2018-11-13T19:20:27.406Z,102123.59
2018-11-13T19:22:55.619Z,102120.25
2018-11-13T19:25:26.437Z,102124.65
2018-11-13T19:27:55.351Z,102126.20
2018-11-13T19:30:23.864Z,102123.95
2018-11-13T19:32:52.146Z,102127.06
2018-11-13T19:35:20.832Z,102130.15
2018-11-13T19:37:49.103Z,102129.31
2018-11-13T19:40:22.015Z,102127.16
2018-11-13T19:42:50.987Z,102129.92
2018-11-13T19:45:19.751Z,102140.20
2018-11-13T19:47:47.992Z,102144.29
2018-11-13T19:50:17.960Z,102143.55
2018-11-13T19:52:46.276Z,102153.35
2018-11-13T19:55:15.580Z,102152.64
2018-11-13T19:57:44.648Z,102159.58
2018-11-13T20:00:20.816Z,102154.31
2018-11-13T20:02:50.302Z,102153.83
2018-11-13T20:05:18.612Z,102153.25
2018-11-13T20:07:46.940Z,102158.30
2018-11-13T20:10:23.288Z,102160.70
2018-11-13T20:12:52.545Z,102163.34
2018-11-13T20:15:21.880Z,102162.95
2018-11-13T20:17:50.289Z,102167.39
2018-11-13T20:20:20.777Z,102162.25
2018-11-13T20:22:49.753Z,102168.09
2018-11-13T20:25:19.442Z,102175.27
2018-11-13T20:27:47.748Z,102176.70
2018-11-13T20:30:18.479Z,102180.40
2018-11-13T20:32:46.834Z,102180.53
2018-11-13T20:35:15.163Z,102182.91
2018-11-13T20:37:44.854Z,102183.48
2018-11-13T20:40:18.612Z,102188.03
2018-11-13T20:42:51.249Z,102182.52
2018-11-13T20:45:19.752Z,102184.53
2018-11-13T20:47:48.085Z,102186.69
2018-11-13T20:50:18.388Z,102185.84
2018-11-13T20:52:46.956Z,102188.36
2018-11-13T20:55:15.318Z,102186.69
2018-11-13T20:57:43.587Z,102180.58
2018-11-13T21:00:13.984Z,102186.69
2018-11-13T21:02:42.279Z,102188.00
2018-11-13T21:05:10.549Z,102191.12
2018-11-13T21:07:38.985Z,102195.77
2018-11-13T21:10:10.414Z,102196.83
2018-11-13T21:12:39.020Z,102202.57
2018-11-13T21:15:09.672Z,102200.61
2018-11-13T21:17:37.957Z,102203.36
2018-11-13T21:20:07.496Z,102205.34
2018-11-13T21:22:35.774Z,102203.94
2018-11-13T21:25:04.420Z,102203.10
2018-11-13T21:27:33.059Z,102201.79
2018-11-13T21:30:01.450Z,102205.25
2018-11-13T21:32:29.660Z,102205.73
2018-11-13T21:34:57.962Z,102210.16
2018-11-13T21:37:26.444Z,102204.64
2018-11-13T21:39:54.827Z,102213.11
2018-11-13T21:42:23.110Z,102211.78
2018-11-13T21:44:51.667Z,102214.24
2018-11-13T21:47:19.973Z,102207.43
2018-11-13T21:49:49.459Z,102210.98
2018-11-13T21:52:17.863Z,102213.27
2018-11-13T21:54:46.147Z,102217.34
2018-11-13T21:57:14.427Z,102210.76
2018-11-13T21:59:42.791Z,102209.89
2018-11-13T22:02:11.067Z,102216.95
2018-11-13T22:04:39.487Z,102215.76
2018-11-13T22:07:08.658Z,102220.66
2018-11-13T22:09:36.915Z,102214.66
2018-11-13T22:12:05.234Z,102212.12
2018-11-13T22:14:33.578Z,102219.78
2018-11-13T22:17:01.850Z,102218.55
2018-11-13T22:19:30.191Z,102217.98
2018-11-13T22:21:58.472Z,102224.08
2018-11-13T22:24:26.753Z,102225.88
2018-11-13T22:26:55.040Z,102222.41
2018-11-13T22:29:23.334Z,102222.41
2018-11-13T22:31:51.617Z,102226.57
2018-11-13T22:34:19.973Z,102230.61
2018-11-13T22:36:48.235Z,102233.84
2018-11-13T22:39:16.507Z,102226.04
2018-11-13T22:41:44.815Z,102225.56
2018-11-13T22:44:13.143Z,102239.31
2018-11-13T22:46:41.405Z,102238.57
2018-11-13T22:49:09.681Z,102233.04
2018-11-13T22:51:38.005Z,102242.84
2018-11-13T22:54:06.319Z,102242.58
2018-11-13T22:56:34.672Z,102242.31
2018-11-13T22:59:02.990Z,102239.80
2018-11-13T23:01:31.291Z,102246.23
2018-11-13T23:03:59.591Z,102254.96
2018-11-13T23:06:27.870Z,102254.13
2018-11-13T23:08:56.151Z,102257.67
2018-11-13T23:11:24.526Z,102262.58
2018-11-13T23:13:52.797Z,102259.20
2018-11-13T23:16:21.071Z,102264.22
2018-11-13T23:18:49.353Z,102264.28
2018-11-13T23:21:17.653Z,102263.85
2018-11-13T23:23:45.940Z,102260.83
2018-11-13T23:26:14.205Z,102264.30
2018-11-13T23:28:42.478Z,102264.90
2018-11-13T23:31:10.735Z,102260.89
2018-11-13T23:33:38.994Z,102262.88
2018-11-13T23:36:07.285Z,102264.88
2018-11-13T23:38:35.544Z,102270.61
2018-11-13T23:41:03.820Z,102269.66
2018-11-13T23:43:32.105Z,102269.66
2018-11-13T23:46:00.489Z,102273.76
2018-11-13T23:48:28.867Z,102280.13
2018-11-13T23:50:57.132Z,102279.29
2018-11-13T23:53:25.400Z,102289.33
2018-11-13T23:55:53.685Z,102294.14
2018-11-13T23:58:21.949Z,102297.42
